<?xml version="1.0" encoding="UTF-8" standalone="yes"?>
<gpx version="1.1" creator="outdooractive - http://www.outdooractive.com" xmlns="http://www.topografix.com/GPX/1/1" xmlns:oa="http://www.outdooractive.com/GPX/Extensions/1" xmlns:xsi="http://www.w3.org/2001/XMLSchema-instance" xsi:schemaLocation="http://www.topografix.com/GPX/1/1 http://www.topografix.com/GPX/1/1/gpx.xsd http://www.outdooractive.com/GPX/Extensions/1 https://www.outdooractive.com/schema/gpx_extensions.xsd">
  <metadata>
    <name>percorso 11/2 collegamento percorso 11 (Becua) percorso 8 (Piano dei Francesi)</name>
    <author>
      <name>Flavio Querio - Community</name>
    </author>
    <link href="https://www.outdooractive.com/r/337079073"/>
    <time>2026-03-24T20:46:40.005Z</time>
    <extensions>
      <oa:oaCategory>hikingTourTrail</oa:oaCategory>
    </extensions>
  </metadata>
  <trk>
    <name>percorso 11/2 collegamento percorso 11 (Becua) percorso 8 (Piano dei Francesi)</name>
    <desc><![CDATA[Percorso 11/2 collegamento perc.11 (Becua) perc. 8 Piano dei Francesi / Anche questo è un bel collegamento per chi vuole chiudere l'anello dopo essere saliti al bivacco dall' Alpe Losa (8/3) per proseguire sull'intera cresta Beltrando (8) sino a Pian dei Francesi 2169 mt, si scende agli alpeggi della Becua 2035 mt sino ad incrociare il percorso proveniente dagli alpeggi di Livi per i laghi di Chiono (11) si prosegue verso l'Alpe Ossaira e Losa a recuperare l'auto da dove si è partiti. / Distanza: 1 Km / Dislivello: + 32 mt - 165 mt / Quota part :2169mt Pian dei Francesi / Quota max : 2169 mt / Quota min : 2035 mt Becua / Tempo perc: 30 min / Grado diff: EE /]]></desc>
    <type>hikingTourTrail</type>
    <trkseg>
      <trkpt lat="45.470108" lon="7.644829">
        <ele>2167.57756</ele>
        <time>2023-11-23T12:26:54.000Z</time>
        <name>Percorso 11_1 collegamento Becua_Pian Franseis</name>
        <desc>Il percorso 11_1 permette di collegare l anello 11(Livi Becua Chiono) con il n 8 (Verzel cresta e bivacco Beltrando)</desc>
      </trkpt>
      <trkpt lat="45.470099" lon="7.644838">
        <ele>2167.75351</ele>
        <time>2023-11-23T12:26:59.000Z</time>
      </trkpt>
      <trkpt lat="45.470087" lon="7.64482">
        <ele>2167.76946</ele>
        <time>2023-11-23T12:27:05.000Z</time>
      </trkpt>
      <trkpt lat="45.470086" lon="7.644804">
        <ele>2167.64993</ele>
        <time>2023-11-23T12:27:10.000Z</time>
      </trkpt>
      <trkpt lat="45.470092" lon="7.644792">
        <ele>2167.40349</ele>
        <time>2023-11-23T12:27:21.000Z</time>
      </trkpt>
      <trkpt lat="45.470097" lon="7.64475">
        <ele>2166.41455</ele>
        <time>2023-11-23T12:28:13.000Z</time>
      </trkpt>
      <trkpt lat="45.470107" lon="7.644731">
        <ele>2165.52916</ele>
        <time>2023-11-23T12:29:30.000Z</time>
      </trkpt>
      <trkpt lat="45.470116" lon="7.644722">
        <ele>2164.87567</ele>
        <time>2023-11-23T12:29:35.000Z</time>
      </trkpt>
      <trkpt lat="45.47014" lon="7.644718">
        <ele>2163.6737</ele>
        <time>2023-11-23T12:29:41.000Z</time>
      </trkpt>
      <trkpt lat="45.470152" lon="7.644726">
        <ele>2163.45178</ele>
        <time>2023-11-23T12:29:47.000Z</time>
      </trkpt>
      <trkpt lat="45.470144" lon="7.644696">
        <ele>2162.53429</ele>
        <time>2023-11-23T12:29:52.000Z</time>
      </trkpt>
      <trkpt lat="45.470127" lon="7.644678">
        <ele>2162.61716</ele>
        <time>2023-11-23T12:29:57.000Z</time>
      </trkpt>
      <trkpt lat="45.470108" lon="7.644647">
        <ele>2162.30495</ele>
        <time>2023-11-23T12:30:03.000Z</time>
      </trkpt>
      <trkpt lat="45.47011" lon="7.644627">
        <ele>2161.34641</ele>
        <time>2023-11-23T12:30:49.000Z</time>
      </trkpt>
      <trkpt lat="45.470117" lon="7.64462">
        <ele>2160.62713</ele>
        <time>2023-11-23T12:30:55.000Z</time>
      </trkpt>
      <trkpt lat="45.470131" lon="7.644616">
        <ele>2159.58154</ele>
        <time>2023-11-23T12:31:00.000Z</time>
      </trkpt>
      <trkpt lat="45.470156" lon="7.644589">
        <ele>2156.65629</ele>
        <time>2023-11-23T12:31:05.000Z</time>
      </trkpt>
      <trkpt lat="45.47018" lon="7.644574">
        <ele>2154.26407</ele>
        <time>2023-11-23T12:31:11.000Z</time>
      </trkpt>
      <trkpt lat="45.470199" lon="7.644567">
        <ele>2152.59469</ele>
        <time>2023-11-23T12:31:17.000Z</time>
      </trkpt>
      <trkpt lat="45.470219" lon="7.64459">
        <ele>2152.47066</ele>
        <time>2023-11-23T12:31:22.000Z</time>
      </trkpt>
      <trkpt lat="45.470219" lon="7.644604">
        <ele>2153.25271</ele>
        <time>2023-11-23T12:31:27.000Z</time>
      </trkpt>
      <trkpt lat="45.470229" lon="7.644622">
        <ele>2153.67868</ele>
        <time>2023-11-23T12:31:32.000Z</time>
      </trkpt>
      <trkpt lat="45.470235" lon="7.644617">
        <ele>2153.02311</ele>
        <time>2023-11-23T12:31:54.000Z</time>
      </trkpt>
      <trkpt lat="45.470275" lon="7.644626">
        <ele>2151.13857</ele>
        <time>2023-11-23T12:32:16.000Z</time>
      </trkpt>
      <trkpt lat="45.470293" lon="7.644624">
        <ele>2149.90187</ele>
        <time>2023-11-23T12:32:22.000Z</time>
      </trkpt>
      <trkpt lat="45.470296" lon="7.644614">
        <ele>2149.06489</ele>
        <time>2023-11-23T12:32:33.000Z</time>
      </trkpt>
      <trkpt lat="45.470315" lon="7.644602">
        <ele>2147.09051</ele>
        <time>2023-11-23T12:32:39.000Z</time>
      </trkpt>
      <trkpt lat="45.470334" lon="7.644618">
        <ele>2146.9684</ele>
        <time>2023-11-23T12:32:45.000Z</time>
      </trkpt>
      <trkpt lat="45.470356" lon="7.644638">
        <ele>2147.02242</ele>
        <time>2023-11-23T12:33:02.000Z</time>
      </trkpt>
      <trkpt lat="45.470364" lon="7.644635">
        <ele>2146.33586</ele>
        <time>2023-11-23T12:33:08.000Z</time>
      </trkpt>
      <trkpt lat="45.47037" lon="7.644635">
        <ele>2145.98203</ele>
        <time>2023-11-23T12:33:13.000Z</time>
      </trkpt>
      <trkpt lat="45.470407" lon="7.644648">
        <ele>2144.81311</ele>
        <time>2023-11-23T12:33:19.000Z</time>
      </trkpt>
      <trkpt lat="45.470427" lon="7.644665">
        <ele>2144.99399</ele>
        <time>2023-11-23T12:33:24.000Z</time>
      </trkpt>
      <trkpt lat="45.470445" lon="7.644652">
        <ele>2143.0462</ele>
        <time>2023-11-23T12:33:59.000Z</time>
      </trkpt>
      <trkpt lat="45.470463" lon="7.644629">
        <ele>2140.36122</ele>
        <time>2023-11-23T12:34:20.000Z</time>
      </trkpt>
      <trkpt lat="45.470473" lon="7.644638">
        <ele>2140.49924</ele>
        <time>2023-11-23T12:34:26.000Z</time>
      </trkpt>
      <trkpt lat="45.470522" lon="7.644635">
        <ele>2137.72712</ele>
        <time>2023-11-23T12:35:07.000Z</time>
      </trkpt>
      <trkpt lat="45.470537" lon="7.64463">
        <ele>2136.59491</ele>
        <time>2023-11-23T12:35:28.000Z</time>
      </trkpt>
      <trkpt lat="45.470552" lon="7.644626">
        <ele>2135.55089</ele>
        <time>2023-11-23T12:35:34.000Z</time>
      </trkpt>
      <trkpt lat="45.470563" lon="7.644619">
        <ele>2134.4964</ele>
        <time>2023-11-23T12:35:40.000Z</time>
      </trkpt>
      <trkpt lat="45.470593" lon="7.64466">
        <ele>2136.09987</ele>
        <time>2023-11-23T12:35:52.000Z</time>
      </trkpt>
      <trkpt lat="45.470595" lon="7.644671">
        <ele>2136.83869</ele>
        <time>2023-11-23T12:36:02.000Z</time>
      </trkpt>
      <trkpt lat="45.470606" lon="7.64468">
        <ele>2136.98807</ele>
        <time>2023-11-23T12:36:08.000Z</time>
      </trkpt>
      <trkpt lat="45.470658" lon="7.6447">
        <ele>2135.92852</ele>
        <time>2023-11-23T12:36:24.000Z</time>
      </trkpt>
      <trkpt lat="45.470657" lon="7.644668">
        <ele>2133.61492</ele>
        <time>2023-11-23T12:36:30.000Z</time>
      </trkpt>
      <trkpt lat="45.470688" lon="7.644691">
        <ele>2133.80217</ele>
        <time>2023-11-23T12:36:53.000Z</time>
      </trkpt>
      <trkpt lat="45.470722" lon="7.644674">
        <ele>2131.03041</ele>
        <time>2023-11-23T12:36:58.000Z</time>
      </trkpt>
      <trkpt lat="45.470745" lon="7.644662">
        <ele>2129.22574</ele>
        <time>2023-11-23T12:37:04.000Z</time>
      </trkpt>
      <trkpt lat="45.470743" lon="7.644629">
        <ele>2127.14976</ele>
        <time>2023-11-23T12:37:10.000Z</time>
      </trkpt>
      <trkpt lat="45.47077" lon="7.644619">
        <ele>2125.47335</ele>
        <time>2023-11-23T12:37:16.000Z</time>
      </trkpt>
      <trkpt lat="45.470793" lon="7.644642">
        <ele>2126.01844</ele>
        <time>2023-11-23T12:37:22.000Z</time>
      </trkpt>
      <trkpt lat="45.470829" lon="7.644659">
        <ele>2125.60021</ele>
        <time>2023-11-23T12:37:28.000Z</time>
      </trkpt>
      <trkpt lat="45.470858" lon="7.644674">
        <ele>2125.32807</ele>
        <time>2023-11-23T12:37:33.000Z</time>
      </trkpt>
      <trkpt lat="45.47089" lon="7.644669">
        <ele>2123.90804</ele>
        <time>2023-11-23T12:37:59.000Z</time>
      </trkpt>
      <trkpt lat="45.470921" lon="7.64469">
        <ele>2124.32782</ele>
        <time>2023-11-23T12:38:05.000Z</time>
      </trkpt>
      <trkpt lat="45.470937" lon="7.644697">
        <ele>2124.52273</ele>
        <time>2023-11-23T12:38:10.000Z</time>
      </trkpt>
      <trkpt lat="45.470943" lon="7.644682">
        <ele>2123.51655</ele>
        <time>2023-11-23T12:38:15.000Z</time>
      </trkpt>
      <trkpt lat="45.470967" lon="7.644671">
        <ele>2122.72874</ele>
        <time>2023-11-23T12:38:21.000Z</time>
      </trkpt>
      <trkpt lat="45.470983" lon="7.644694">
        <ele>2124.49411</ele>
        <time>2023-11-23T12:38:27.000Z</time>
      </trkpt>
      <trkpt lat="45.470996" lon="7.644721">
        <ele>2126.99963</ele>
        <time>2023-11-23T12:38:33.000Z</time>
      </trkpt>
      <trkpt lat="45.471049" lon="7.644729">
        <ele>2130.25959</ele>
        <time>2023-11-23T12:38:39.000Z</time>
      </trkpt>
      <trkpt lat="45.471082" lon="7.644733">
        <ele>2132.5378</ele>
        <time>2023-11-23T12:38:45.000Z</time>
      </trkpt>
      <trkpt lat="45.471088" lon="7.644717">
        <ele>2130.88254</ele>
        <time>2023-11-23T12:38:57.000Z</time>
      </trkpt>
      <trkpt lat="45.47109" lon="7.644685">
        <ele>2127.0277</ele>
        <time>2023-11-23T12:39:14.000Z</time>
      </trkpt>
      <trkpt lat="45.471097" lon="7.644677">
        <ele>2126.25869</ele>
        <time>2023-11-23T12:39:19.000Z</time>
      </trkpt>
      <trkpt lat="45.471106" lon="7.644678">
        <ele>2126.64054</ele>
        <time>2023-11-23T12:39:30.000Z</time>
      </trkpt>
      <trkpt lat="45.47111" lon="7.644702">
        <ele>2129.86786</ele>
        <time>2023-11-23T12:39:41.000Z</time>
      </trkpt>
      <trkpt lat="45.471139" lon="7.644743">
        <ele>2136.26525</ele>
        <time>2023-11-23T12:39:46.000Z</time>
      </trkpt>
      <trkpt lat="45.471155" lon="7.644733">
        <ele>2135.34688</ele>
        <time>2023-11-23T12:39:51.000Z</time>
      </trkpt>
      <trkpt lat="45.471167" lon="7.644703">
        <ele>2131.45152</ele>
        <time>2023-11-23T12:40:13.000Z</time>
      </trkpt>
      <trkpt lat="45.471201" lon="7.644669">
        <ele>2127.28009</ele>
        <time>2023-11-23T12:40:19.000Z</time>
      </trkpt>
      <trkpt lat="45.471224" lon="7.644638">
        <ele>2123.33906</ele>
        <time>2023-11-23T12:40:25.000Z</time>
      </trkpt>
      <trkpt lat="45.471236" lon="7.644611">
        <ele>2119.90147</ele>
        <time>2023-11-23T12:40:30.000Z</time>
      </trkpt>
      <trkpt lat="45.471251" lon="7.644594">
        <ele>2117.96597</ele>
        <time>2023-11-23T12:40:35.000Z</time>
      </trkpt>
      <trkpt lat="45.471261" lon="7.644562">
        <ele>2114.22673</ele>
        <time>2023-11-23T12:40:41.000Z</time>
      </trkpt>
      <trkpt lat="45.471284" lon="7.644557">
        <ele>2114.09713</ele>
        <time>2023-11-23T12:40:47.000Z</time>
      </trkpt>
      <trkpt lat="45.47129" lon="7.64456">
        <ele>2114.5686</ele>
        <time>2023-11-23T12:40:53.000Z</time>
      </trkpt>
      <trkpt lat="45.471308" lon="7.644556">
        <ele>2114.47043</ele>
        <time>2023-11-23T12:40:59.000Z</time>
      </trkpt>
      <trkpt lat="45.471345" lon="7.644572">
        <ele>2117.18507</ele>
        <time>2023-11-23T12:41:21.000Z</time>
      </trkpt>
      <trkpt lat="45.471348" lon="7.644517">
        <ele>2111.15232</ele>
        <time>2023-11-23T12:41:38.000Z</time>
      </trkpt>
      <trkpt lat="45.471362" lon="7.644513">
        <ele>2111.12919</ele>
        <time>2023-11-23T12:41:43.000Z</time>
      </trkpt>
      <trkpt lat="45.471374" lon="7.644502">
        <ele>2110.36848</ele>
        <time>2023-11-23T12:41:55.000Z</time>
      </trkpt>
      <trkpt lat="45.471371" lon="7.644431">
        <ele>2103.56689</ele>
        <time>2023-11-23T12:42:00.000Z</time>
      </trkpt>
      <trkpt lat="45.471386" lon="7.644388">
        <ele>2100.19816</ele>
        <time>2023-11-23T12:42:06.000Z</time>
      </trkpt>
      <trkpt lat="45.471405" lon="7.644369">
        <ele>2099.02776</ele>
        <time>2023-11-23T12:42:11.000Z</time>
      </trkpt>
      <trkpt lat="45.471425" lon="7.644346">
        <ele>2097.51821</ele>
        <time>2023-11-23T12:42:44.000Z</time>
      </trkpt>
      <trkpt lat="45.471454" lon="7.644343">
        <ele>2097.83916</ele>
        <time>2023-11-23T12:42:49.000Z</time>
      </trkpt>
      <trkpt lat="45.471453" lon="7.644331">
        <ele>2096.77398</ele>
        <time>2023-11-23T12:42:55.000Z</time>
      </trkpt>
      <trkpt lat="45.471461" lon="7.644331">
        <ele>2096.90966</ele>
        <time>2023-11-23T12:43:01.000Z</time>
      </trkpt>
      <trkpt lat="45.471474" lon="7.644314">
        <ele>2095.61378</ele>
        <time>2023-11-23T12:43:13.000Z</time>
      </trkpt>
      <trkpt lat="45.471489" lon="7.644279">
        <ele>2092.76312</ele>
        <time>2023-11-23T12:43:19.000Z</time>
      </trkpt>
      <trkpt lat="45.471501" lon="7.644274">
        <ele>2092.4116</ele>
        <time>2023-11-23T12:43:30.000Z</time>
      </trkpt>
      <trkpt lat="45.471504" lon="7.644263">
        <ele>2091.51811</ele>
        <time>2023-11-23T12:43:42.000Z</time>
      </trkpt>
      <trkpt lat="45.471514" lon="7.644257">
        <ele>2091.06497</ele>
        <time>2023-11-23T12:43:47.000Z</time>
      </trkpt>
      <trkpt lat="45.471534" lon="7.644255">
        <ele>2090.95527</ele>
        <time>2023-11-23T12:43:53.000Z</time>
      </trkpt>
      <trkpt lat="45.471553" lon="7.644266">
        <ele>2091.93745</ele>
        <time>2023-11-23T12:43:59.000Z</time>
      </trkpt>
      <trkpt lat="45.471589" lon="7.644265">
        <ele>2091.97409</ele>
        <time>2023-11-23T12:44:22.000Z</time>
      </trkpt>
      <trkpt lat="45.471602" lon="7.644209">
        <ele>2087.3758</ele>
        <time>2023-11-23T12:44:28.000Z</time>
      </trkpt>
      <trkpt lat="45.471613" lon="7.644165">
        <ele>2084.21608</ele>
        <time>2023-11-23T12:44:33.000Z</time>
      </trkpt>
      <trkpt lat="45.471629" lon="7.644147">
        <ele>2083.08551</ele>
        <time>2023-11-23T12:44:39.000Z</time>
      </trkpt>
      <trkpt lat="45.471652" lon="7.644133">
        <ele>2082.33518</ele>
        <time>2023-11-23T12:44:56.000Z</time>
      </trkpt>
      <trkpt lat="45.471692" lon="7.644116">
        <ele>2081.65739</ele>
        <time>2023-11-23T12:45:02.000Z</time>
      </trkpt>
      <trkpt lat="45.471695" lon="7.64412">
        <ele>2081.92372</ele>
        <time>2023-11-23T12:45:07.000Z</time>
      </trkpt>
      <trkpt lat="45.47172" lon="7.644121">
        <ele>2082.27583</ele>
        <time>2023-11-23T12:45:12.000Z</time>
      </trkpt>
      <trkpt lat="45.471756" lon="7.644131">
        <ele>2083.35421</ele>
        <time>2023-11-23T12:45:18.000Z</time>
      </trkpt>
      <trkpt lat="45.471771" lon="7.644133">
        <ele>2083.69353</ele>
        <time>2023-11-23T12:45:24.000Z</time>
      </trkpt>
      <trkpt lat="45.471774" lon="7.644088">
        <ele>2081.20229</ele>
        <time>2023-11-23T12:45:30.000Z</time>
      </trkpt>
      <trkpt lat="45.471793" lon="7.644046">
        <ele>2079.27152</ele>
        <time>2023-11-23T12:45:36.000Z</time>
      </trkpt>
      <trkpt lat="45.471806" lon="7.64402">
        <ele>2078.10016</ele>
        <time>2023-11-23T12:45:46.000Z</time>
      </trkpt>
      <trkpt lat="45.471806" lon="7.643996">
        <ele>2076.82173</ele>
        <time>2023-11-23T12:45:52.000Z</time>
      </trkpt>
      <trkpt lat="45.471817" lon="7.643976">
        <ele>2075.89101</ele>
        <time>2023-11-23T12:45:57.000Z</time>
      </trkpt>
      <trkpt lat="45.47185" lon="7.643971">
        <ele>2076.03195</ele>
        <time>2023-11-23T12:46:09.000Z</time>
      </trkpt>
      <trkpt lat="45.471859" lon="7.643981">
        <ele>2076.70251</ele>
        <time>2023-11-23T12:46:14.000Z</time>
      </trkpt>
      <trkpt lat="45.471892" lon="7.643931">
        <ele>2074.50268</ele>
        <time>2023-11-23T12:46:26.000Z</time>
      </trkpt>
      <trkpt lat="45.471932" lon="7.643887">
        <ele>2072.95654</ele>
        <time>2023-11-23T12:46:32.000Z</time>
      </trkpt>
      <trkpt lat="45.471956" lon="7.643883">
        <ele>2073.18652</ele>
        <time>2023-11-23T12:46:38.000Z</time>
      </trkpt>
      <trkpt lat="45.471966" lon="7.643861">
        <ele>2072.31433</ele>
        <time>2023-11-23T12:46:43.000Z</time>
      </trkpt>
      <trkpt lat="45.471981" lon="7.643858">
        <ele>2072.40062</ele>
        <time>2023-11-23T12:46:48.000Z</time>
      </trkpt>
      <trkpt lat="45.472011" lon="7.64385">
        <ele>2072.34055</ele>
        <time>2023-11-23T12:47:12.000Z</time>
      </trkpt>
      <trkpt lat="45.472028" lon="7.64383">
        <ele>2071.53022</ele>
        <time>2023-11-23T12:47:18.000Z</time>
      </trkpt>
      <trkpt lat="45.472022" lon="7.643807">
        <ele>2070.56386</ele>
        <time>2023-11-23T12:47:29.000Z</time>
      </trkpt>
      <trkpt lat="45.47203" lon="7.64379">
        <ele>2069.87884</ele>
        <time>2023-11-23T12:47:35.000Z</time>
      </trkpt>
      <trkpt lat="45.472033" lon="7.643758">
        <ele>2068.59519</ele>
        <time>2023-11-23T12:47:41.000Z</time>
      </trkpt>
      <trkpt lat="45.472048" lon="7.643728">
        <ele>2067.39014</ele>
        <time>2023-11-23T12:47:46.000Z</time>
      </trkpt>
      <trkpt lat="45.472084" lon="7.643684">
        <ele>2065.59617</ele>
        <time>2023-11-23T12:47:52.000Z</time>
      </trkpt>
      <trkpt lat="45.47209" lon="7.643654">
        <ele>2064.58354</ele>
        <time>2023-11-23T12:47:57.000Z</time>
      </trkpt>
      <trkpt lat="45.472104" lon="7.64361">
        <ele>2063.30302</ele>
        <time>2023-11-23T12:48:03.000Z</time>
      </trkpt>
      <trkpt lat="45.472156" lon="7.643572">
        <ele>2062.87914</ele>
        <time>2023-11-23T12:48:09.000Z</time>
      </trkpt>
      <trkpt lat="45.472224" lon="7.643516">
        <ele>2063.06142</ele>
        <time>2023-11-23T12:48:14.000Z</time>
      </trkpt>
      <trkpt lat="45.472303" lon="7.643513">
        <ele>2064.38089</ele>
        <time>2023-11-23T12:48:20.000Z</time>
      </trkpt>
      <trkpt lat="45.472356" lon="7.643465">
        <ele>2064.88341</ele>
        <time>2023-11-23T12:48:26.000Z</time>
      </trkpt>
      <trkpt lat="45.472394" lon="7.643423">
        <ele>2065.44883</ele>
        <time>2023-11-23T12:48:31.000Z</time>
      </trkpt>
      <trkpt lat="45.472443" lon="7.643403">
        <ele>2066.64496</ele>
        <time>2023-11-23T12:48:37.000Z</time>
      </trkpt>
      <trkpt lat="45.472465" lon="7.643392">
        <ele>2067.22684</ele>
        <time>2023-11-23T12:48:42.000Z</time>
      </trkpt>
      <trkpt lat="45.47249" lon="7.643395">
        <ele>2067.95072</ele>
        <time>2023-11-23T12:48:47.000Z</time>
      </trkpt>
      <trkpt lat="45.472496" lon="7.643385">
        <ele>2068.11375</ele>
        <time>2023-11-23T12:48:53.000Z</time>
      </trkpt>
      <trkpt lat="45.472511" lon="7.643352">
        <ele>2068.56071</ele>
        <time>2023-11-23T12:48:59.000Z</time>
      </trkpt>
      <trkpt lat="45.472515" lon="7.643337">
        <ele>2068.69133</ele>
        <time>2023-11-23T12:49:05.000Z</time>
      </trkpt>
      <trkpt lat="45.472534" lon="7.643338">
        <ele>2069.27757</ele>
        <time>2023-11-23T12:49:11.000Z</time>
      </trkpt>
      <trkpt lat="45.472564" lon="7.643377">
        <ele>2070.27892</ele>
        <time>2023-11-23T12:49:17.000Z</time>
      </trkpt>
      <trkpt lat="45.47259" lon="7.643375">
        <ele>2071.13408</ele>
        <time>2023-11-23T12:49:23.000Z</time>
      </trkpt>
      <trkpt lat="45.472617" lon="7.643364">
        <ele>2071.96974</ele>
        <time>2023-11-23T12:49:28.000Z</time>
      </trkpt>
      <trkpt lat="45.472631" lon="7.643363">
        <ele>2072.4301</ele>
        <time>2023-11-23T12:49:34.000Z</time>
      </trkpt>
      <trkpt lat="45.472643" lon="7.643385">
        <ele>2073.04207</ele>
        <time>2023-11-23T12:49:39.000Z</time>
      </trkpt>
      <trkpt lat="45.472674" lon="7.643391">
        <ele>2074.34343</ele>
        <time>2023-11-23T12:49:45.000Z</time>
      </trkpt>
      <trkpt lat="45.472703" lon="7.643387">
        <ele>2075.58156</ele>
        <time>2023-11-23T12:49:51.000Z</time>
      </trkpt>
      <trkpt lat="45.472718" lon="7.643407">
        <ele>2076.6551</ele>
        <time>2023-11-23T12:49:56.000Z</time>
      </trkpt>
      <trkpt lat="45.472712" lon="7.64343">
        <ele>2076.77152</ele>
        <time>2023-11-23T12:50:01.000Z</time>
      </trkpt>
      <trkpt lat="45.472688" lon="7.643477">
        <ele>2076.56048</ele>
        <time>2023-11-23T12:50:07.000Z</time>
      </trkpt>
      <trkpt lat="45.47268" lon="7.643515">
        <ele>2077.06723</ele>
        <time>2023-11-23T12:50:13.000Z</time>
      </trkpt>
      <trkpt lat="45.472683" lon="7.643543">
        <ele>2077.94974</ele>
        <time>2023-11-23T12:50:42.000Z</time>
      </trkpt>
      <trkpt lat="45.47269" lon="7.643589">
        <ele>2079.62375</ele>
        <time>2023-11-23T12:50:48.000Z</time>
      </trkpt>
      <trkpt lat="45.472677" lon="7.643611">
        <ele>2079.56688</ele>
        <time>2023-11-23T12:50:54.000Z</time>
      </trkpt>
      <trkpt lat="45.472665" lon="7.643671">
        <ele>2080.79684</ele>
        <time>2023-11-23T12:51:00.000Z</time>
      </trkpt>
      <trkpt lat="45.472651" lon="7.643717">
        <ele>2081.57663</ele>
        <time>2023-11-23T12:51:06.000Z</time>
      </trkpt>
      <trkpt lat="45.472653" lon="7.643748">
        <ele>2082.8521</ele>
        <time>2023-11-23T12:51:17.000Z</time>
      </trkpt>
      <trkpt lat="45.472667" lon="7.643772">
        <ele>2084.60973</ele>
        <time>2023-11-23T12:51:23.000Z</time>
      </trkpt>
      <trkpt lat="45.472741" lon="7.64383">
        <ele>2090.53203</ele>
        <time>2023-11-23T12:52:10.000Z</time>
      </trkpt>
      <trkpt lat="45.472764" lon="7.643819">
        <ele>2090.99188</ele>
        <time>2023-11-23T12:52:15.000Z</time>
      </trkpt>
      <trkpt lat="45.472778" lon="7.643817">
        <ele>2091.44411</ele>
        <time>2023-11-23T12:52:20.000Z</time>
      </trkpt>
      <trkpt lat="45.472782" lon="7.643818">
        <ele>2091.62304</ele>
        <time>2023-11-23T12:52:25.000Z</time>
      </trkpt>
      <trkpt lat="45.472785" lon="7.643783">
        <ele>2090.62233</ele>
        <time>2023-11-23T12:52:43.000Z</time>
      </trkpt>
      <trkpt lat="45.472785" lon="7.64378">
        <ele>2090.52889</ele>
        <time>2023-11-23T12:52:49.000Z</time>
      </trkpt>
      <trkpt lat="45.4728" lon="7.643773">
        <ele>2090.95017</ele>
        <time>2023-11-23T12:53:01.000Z</time>
      </trkpt>
      <trkpt lat="45.472827" lon="7.643757">
        <ele>2091.65194</ele>
        <time>2023-11-23T12:53:07.000Z</time>
      </trkpt>
      <trkpt lat="45.472839" lon="7.643763">
        <ele>2092.25997</ele>
        <time>2023-11-23T12:53:12.000Z</time>
      </trkpt>
      <trkpt lat="45.472845" lon="7.643781">
        <ele>2092.86196</ele>
        <time>2023-11-23T12:53:18.000Z</time>
      </trkpt>
      <trkpt lat="45.472855" lon="7.643788">
        <ele>2093.3242</ele>
        <time>2023-11-23T12:53:23.000Z</time>
      </trkpt>
      <trkpt lat="45.472865" lon="7.643782">
        <ele>2093.50618</ele>
        <time>2023-11-23T12:53:29.000Z</time>
      </trkpt>
      <trkpt lat="45.472887" lon="7.643779">
        <ele>2094.0302</ele>
        <time>2023-11-23T12:53:34.000Z</time>
      </trkpt>
      <trkpt lat="45.472922" lon="7.643789">
        <ele>2094.77743</ele>
        <time>2023-11-23T12:53:39.000Z</time>
      </trkpt>
      <trkpt lat="45.472953" lon="7.643779">
        <ele>2094.79635</ele>
        <time>2023-11-23T12:53:45.000Z</time>
      </trkpt>
      <trkpt lat="45.472988" lon="7.643784">
        <ele>2094.66989</ele>
        <time>2023-11-23T12:53:51.000Z</time>
      </trkpt>
      <trkpt lat="45.473038" lon="7.643767">
        <ele>2093.70593</ele>
        <time>2023-11-23T12:53:57.000Z</time>
      </trkpt>
      <trkpt lat="45.473084" lon="7.643744">
        <ele>2092.5481</ele>
        <time>2023-11-23T12:54:02.000Z</time>
      </trkpt>
      <trkpt lat="45.473125" lon="7.643719">
        <ele>2091.60716</ele>
        <time>2023-11-23T12:54:08.000Z</time>
      </trkpt>
      <trkpt lat="45.473172" lon="7.643714">
        <ele>2091.0198</ele>
        <time>2023-11-23T12:54:14.000Z</time>
      </trkpt>
      <trkpt lat="45.473234" lon="7.6437">
        <ele>2089.99055</ele>
        <time>2023-11-23T12:54:20.000Z</time>
      </trkpt>
      <trkpt lat="45.473284" lon="7.64368">
        <ele>2088.87553</ele>
        <time>2023-11-23T12:54:26.000Z</time>
      </trkpt>
      <trkpt lat="45.473315" lon="7.643695">
        <ele>2088.66653</ele>
        <time>2023-11-23T12:54:32.000Z</time>
      </trkpt>
      <trkpt lat="45.473354" lon="7.643678">
        <ele>2087.55098</ele>
        <time>2023-11-23T12:54:37.000Z</time>
      </trkpt>
      <trkpt lat="45.473399" lon="7.643664">
        <ele>2086.5074</ele>
        <time>2023-11-23T12:54:43.000Z</time>
      </trkpt>
      <trkpt lat="45.473447" lon="7.64363">
        <ele>2085.61571</ele>
        <time>2023-11-23T12:54:49.000Z</time>
      </trkpt>
      <trkpt lat="45.473486" lon="7.643596">
        <ele>2085.38633</ele>
        <time>2023-11-23T12:54:55.000Z</time>
      </trkpt>
      <trkpt lat="45.473522" lon="7.643537">
        <ele>2085.51075</ele>
        <time>2023-11-23T12:55:01.000Z</time>
      </trkpt>
      <trkpt lat="45.473529" lon="7.643486">
        <ele>2085.56212</ele>
        <time>2023-11-23T12:55:07.000Z</time>
      </trkpt>
      <trkpt lat="45.473572" lon="7.643472">
        <ele>2085.87294</ele>
        <time>2023-11-23T12:55:13.000Z</time>
      </trkpt>
      <trkpt lat="45.473606" lon="7.643475">
        <ele>2086.13945</ele>
        <time>2023-11-23T12:55:18.000Z</time>
      </trkpt>
      <trkpt lat="45.473615" lon="7.643456">
        <ele>2086.19954</ele>
        <time>2023-11-23T12:55:23.000Z</time>
      </trkpt>
      <trkpt lat="45.473615" lon="7.643445">
        <ele>2086.19469</ele>
        <time>2023-11-23T12:55:29.000Z</time>
      </trkpt>
      <trkpt lat="45.473617" lon="7.643412">
        <ele>2086.21795</ele>
        <time>2023-11-23T12:55:35.000Z</time>
      </trkpt>
      <trkpt lat="45.473607" lon="7.643367">
        <ele>2086.25028</ele>
        <time>2023-11-23T12:55:40.000Z</time>
      </trkpt>
      <trkpt lat="45.473611" lon="7.643328">
        <ele>2086.43761</ele>
        <time>2023-11-23T12:55:45.000Z</time>
      </trkpt>
      <trkpt lat="45.473622" lon="7.643306">
        <ele>2086.63703</ele>
        <time>2023-11-23T12:55:51.000Z</time>
      </trkpt>
      <trkpt lat="45.473621" lon="7.643293">
        <ele>2086.67224</ele>
        <time>2023-11-23T12:55:57.000Z</time>
      </trkpt>
      <trkpt lat="45.47362" lon="7.643296">
        <ele>2086.65282</ele>
        <time>2023-11-23T12:56:02.000Z</time>
      </trkpt>
      <trkpt lat="45.473631" lon="7.643262">
        <ele>2086.82001</ele>
        <time>2023-11-23T12:56:20.000Z</time>
      </trkpt>
      <trkpt lat="45.473632" lon="7.64326">
        <ele>2086.82721</ele>
        <time>2023-11-23T12:56:26.000Z</time>
      </trkpt>
      <trkpt lat="45.473631" lon="7.643256">
        <ele>2086.82647</ele>
        <time>2023-11-23T12:56:31.000Z</time>
      </trkpt>
      <trkpt lat="45.473632" lon="7.643246">
        <ele>2086.83496</ele>
        <time>2023-11-23T12:56:36.000Z</time>
      </trkpt>
      <trkpt lat="45.473632" lon="7.643245">
        <ele>2086.83482</ele>
        <time>2023-11-23T12:56:42.000Z</time>
      </trkpt>
      <trkpt lat="45.473665" lon="7.643193">
        <ele>2086.54314</ele>
        <time>2023-11-23T12:57:05.000Z</time>
      </trkpt>
      <trkpt lat="45.473681" lon="7.643131">
        <ele>2085.74886</ele>
        <time>2023-11-23T12:57:11.000Z</time>
      </trkpt>
      <trkpt lat="45.47369" lon="7.643101">
        <ele>2085.24878</ele>
        <time>2023-11-23T12:57:17.000Z</time>
      </trkpt>
      <trkpt lat="45.473709" lon="7.643079">
        <ele>2084.57308</ele>
        <time>2023-11-23T12:57:38.000Z</time>
      </trkpt>
      <trkpt lat="45.473728" lon="7.643006">
        <ele>2083.08093</ele>
        <time>2023-11-23T12:57:44.000Z</time>
      </trkpt>
      <trkpt lat="45.473738" lon="7.642963">
        <ele>2082.10031</ele>
        <time>2023-11-23T12:57:49.000Z</time>
      </trkpt>
      <trkpt lat="45.473755" lon="7.642929">
        <ele>2081.08135</ele>
        <time>2023-11-23T12:57:55.000Z</time>
      </trkpt>
      <trkpt lat="45.473771" lon="7.64291">
        <ele>2080.38768</ele>
        <time>2023-11-23T12:58:00.000Z</time>
      </trkpt>
      <trkpt lat="45.473776" lon="7.642879">
        <ele>2079.66683</ele>
        <time>2023-11-23T12:58:06.000Z</time>
      </trkpt>
      <trkpt lat="45.473781" lon="7.642836">
        <ele>2078.69542</ele>
        <time>2023-11-23T12:58:12.000Z</time>
      </trkpt>
      <trkpt lat="45.473783" lon="7.642815">
        <ele>2078.21668</ele>
        <time>2023-11-23T12:58:17.000Z</time>
      </trkpt>
      <trkpt lat="45.473816" lon="7.64281">
        <ele>2077.78459</ele>
        <time>2023-11-23T12:58:23.000Z</time>
      </trkpt>
      <trkpt lat="45.473847" lon="7.642821">
        <ele>2077.39423</ele>
        <time>2023-11-23T12:58:28.000Z</time>
      </trkpt>
      <trkpt lat="45.473866" lon="7.642813">
        <ele>2076.80552</ele>
        <time>2023-11-23T12:58:34.000Z</time>
      </trkpt>
      <trkpt lat="45.473881" lon="7.642777">
        <ele>2075.838</ele>
        <time>2023-11-23T12:58:40.000Z</time>
      </trkpt>
      <trkpt lat="45.47392" lon="7.642743">
        <ele>2074.16558</ele>
        <time>2023-11-23T12:58:46.000Z</time>
      </trkpt>
      <trkpt lat="45.473953" lon="7.642737">
        <ele>2073.13989</ele>
        <time>2023-11-23T12:58:52.000Z</time>
      </trkpt>
      <trkpt lat="45.473979" lon="7.642735">
        <ele>2072.44646</ele>
        <time>2023-11-23T12:58:57.000Z</time>
      </trkpt>
      <trkpt lat="45.474011" lon="7.642746">
        <ele>2071.88077</ele>
        <time>2023-11-23T12:59:03.000Z</time>
      </trkpt>
      <trkpt lat="45.474049" lon="7.642733">
        <ele>2070.81656</ele>
        <time>2023-11-23T12:59:09.000Z</time>
      </trkpt>
      <trkpt lat="45.474078" lon="7.642726">
        <ele>2070.07035</ele>
        <time>2023-11-23T12:59:15.000Z</time>
      </trkpt>
      <trkpt lat="45.474093" lon="7.642732">
        <ele>2069.79379</ele>
        <time>2023-11-23T12:59:21.000Z</time>
      </trkpt>
      <trkpt lat="45.474114" lon="7.64273">
        <ele>2069.31412</ele>
        <time>2023-11-23T12:59:26.000Z</time>
      </trkpt>
      <trkpt lat="45.474153" lon="7.642714">
        <ele>2068.39857</ele>
        <time>2023-11-23T12:59:32.000Z</time>
      </trkpt>
      <trkpt lat="45.474176" lon="7.642712">
        <ele>2067.96342</ele>
        <time>2023-11-23T12:59:37.000Z</time>
      </trkpt>
      <trkpt lat="45.4742" lon="7.642709">
        <ele>2067.47476</ele>
        <time>2023-11-23T12:59:43.000Z</time>
      </trkpt>
      <trkpt lat="45.474216" lon="7.64274">
        <ele>2067.42627</ele>
        <time>2023-11-23T12:59:49.000Z</time>
      </trkpt>
      <trkpt lat="45.474216" lon="7.642792">
        <ele>2067.81111</ele>
        <time>2023-11-23T12:59:55.000Z</time>
      </trkpt>
      <trkpt lat="45.474231" lon="7.6428">
        <ele>2067.67279</ele>
        <time>2023-11-23T13:00:01.000Z</time>
      </trkpt>
      <trkpt lat="45.47426" lon="7.642791">
        <ele>2067.24873</ele>
        <time>2023-11-23T13:00:07.000Z</time>
      </trkpt>
      <trkpt lat="45.4743" lon="7.642777">
        <ele>2066.74496</ele>
        <time>2023-11-23T13:00:13.000Z</time>
      </trkpt>
      <trkpt lat="45.474317" lon="7.642784">
        <ele>2066.79335</ele>
        <time>2023-11-23T13:00:19.000Z</time>
      </trkpt>
      <trkpt lat="45.474335" lon="7.642786">
        <ele>2066.83034</ele>
        <time>2023-11-23T13:00:24.000Z</time>
      </trkpt>
      <trkpt lat="45.474377" lon="7.642733">
        <ele>2066.12691</ele>
        <time>2023-11-23T13:00:30.000Z</time>
      </trkpt>
      <trkpt lat="45.474416" lon="7.642703">
        <ele>2066.15057</ele>
        <time>2023-11-23T13:00:36.000Z</time>
      </trkpt>
      <trkpt lat="45.474441" lon="7.642669">
        <ele>2065.99554</ele>
        <time>2023-11-23T13:00:41.000Z</time>
      </trkpt>
      <trkpt lat="45.47447" lon="7.642618">
        <ele>2065.69627</ele>
        <time>2023-11-23T13:00:47.000Z</time>
      </trkpt>
      <trkpt lat="45.4745" lon="7.642551">
        <ele>2065.24296</ele>
        <time>2023-11-23T13:00:52.000Z</time>
      </trkpt>
      <trkpt lat="45.474544" lon="7.642507">
        <ele>2065.03087</ele>
        <time>2023-11-23T13:00:58.000Z</time>
      </trkpt>
      <trkpt lat="45.474593" lon="7.642479">
        <ele>2064.71122</ele>
        <time>2023-11-23T13:01:04.000Z</time>
      </trkpt>
      <trkpt lat="45.474616" lon="7.642446">
        <ele>2064.03663</ele>
        <time>2023-11-23T13:01:09.000Z</time>
      </trkpt>
      <trkpt lat="45.474642" lon="7.642418">
        <ele>2063.34335</ele>
        <time>2023-11-23T13:01:15.000Z</time>
      </trkpt>
      <trkpt lat="45.474682" lon="7.642439">
        <ele>2063.6055</ele>
        <time>2023-11-23T13:01:21.000Z</time>
      </trkpt>
      <trkpt lat="45.474714" lon="7.642464">
        <ele>2064.08399</ele>
        <time>2023-11-23T13:01:26.000Z</time>
      </trkpt>
      <trkpt lat="45.474755" lon="7.64244">
        <ele>2063.28093</ele>
        <time>2023-11-23T13:01:31.000Z</time>
      </trkpt>
      <trkpt lat="45.474804" lon="7.642424">
        <ele>2062.57342</ele>
        <time>2023-11-23T13:01:37.000Z</time>
      </trkpt>
      <trkpt lat="45.474843" lon="7.642458">
        <ele>2063.14974</ele>
        <time>2023-11-23T13:01:43.000Z</time>
      </trkpt>
      <trkpt lat="45.474873" lon="7.642491">
        <ele>2063.76131</ele>
        <time>2023-11-23T13:01:48.000Z</time>
      </trkpt>
      <trkpt lat="45.474912" lon="7.642497">
        <ele>2063.57255</ele>
        <time>2023-11-23T13:01:54.000Z</time>
      </trkpt>
      <trkpt lat="45.474948" lon="7.642501">
        <ele>2063.30169</ele>
        <time>2023-11-23T13:01:59.000Z</time>
      </trkpt>
      <trkpt lat="45.474984" lon="7.642508">
        <ele>2063.09563</ele>
        <time>2023-11-23T13:02:05.000Z</time>
      </trkpt>
      <trkpt lat="45.475025" lon="7.642509">
        <ele>2062.70043</ele>
        <time>2023-11-23T13:02:11.000Z</time>
      </trkpt>
      <trkpt lat="45.475056" lon="7.642531">
        <ele>2063.06128</ele>
        <time>2023-11-23T13:02:17.000Z</time>
      </trkpt>
      <trkpt lat="45.475062" lon="7.642492">
        <ele>2061.89347</ele>
        <time>2023-11-23T13:02:34.000Z</time>
      </trkpt>
      <trkpt lat="45.475118" lon="7.642493">
        <ele>2061.5741</ele>
        <time>2023-11-23T13:03:03.000Z</time>
      </trkpt>
      <trkpt lat="45.475167" lon="7.642468">
        <ele>2060.51694</ele>
        <time>2023-11-23T13:03:09.000Z</time>
      </trkpt>
      <trkpt lat="45.475203" lon="7.642464">
        <ele>2060.21299</ele>
        <time>2023-11-23T13:03:14.000Z</time>
      </trkpt>
      <trkpt lat="45.475236" lon="7.642442">
        <ele>2059.34378</ele>
        <time>2023-11-23T13:03:20.000Z</time>
      </trkpt>
      <trkpt lat="45.475276" lon="7.642433">
        <ele>2058.95881</ele>
        <time>2023-11-23T13:03:25.000Z</time>
      </trkpt>
      <trkpt lat="45.475324" lon="7.642415">
        <ele>2058.44282</ele>
        <time>2023-11-23T13:03:31.000Z</time>
      </trkpt>
      <trkpt lat="45.475376" lon="7.642394">
        <ele>2058.09274</ele>
        <time>2023-11-23T13:03:37.000Z</time>
      </trkpt>
      <trkpt lat="45.475412" lon="7.642366">
        <ele>2057.68769</ele>
        <time>2023-11-23T13:03:43.000Z</time>
      </trkpt>
      <trkpt lat="45.475443" lon="7.642333">
        <ele>2057.17101</ele>
        <time>2023-11-23T13:03:59.000Z</time>
      </trkpt>
      <trkpt lat="45.475463" lon="7.642299">
        <ele>2056.54885</ele>
        <time>2023-11-23T13:04:04.000Z</time>
      </trkpt>
      <trkpt lat="45.475458" lon="7.642261">
        <ele>2055.46954</ele>
        <time>2023-11-23T13:04:10.000Z</time>
      </trkpt>
      <trkpt lat="45.475466" lon="7.64221">
        <ele>2054.19804</ele>
        <time>2023-11-23T13:04:15.000Z</time>
      </trkpt>
      <trkpt lat="45.475494" lon="7.642183">
        <ele>2053.9796</ele>
        <time>2023-11-23T13:04:21.000Z</time>
      </trkpt>
      <trkpt lat="45.475507" lon="7.642156">
        <ele>2053.5758</ele>
        <time>2023-11-23T13:04:26.000Z</time>
      </trkpt>
      <trkpt lat="45.475531" lon="7.642108">
        <ele>2053.00262</ele>
        <time>2023-11-23T13:04:31.000Z</time>
      </trkpt>
      <trkpt lat="45.475497" lon="7.642029">
        <ele>2050.94039</ele>
        <time>2023-11-23T13:04:38.000Z</time>
      </trkpt>
      <trkpt lat="45.475493" lon="7.641959">
        <ele>2049.81638</ele>
        <time>2023-11-23T13:04:44.000Z</time>
      </trkpt>
      <trkpt lat="45.47558" lon="7.64185">
        <ele>2048.31781</ele>
        <time>2023-11-23T13:04:49.000Z</time>
      </trkpt>
      <trkpt lat="45.475579" lon="7.641851">
        <ele>2048.33147</ele>
        <time>2023-11-23T13:05:00.000Z</time>
      </trkpt>
      <trkpt lat="45.475627" lon="7.641789">
        <ele>2047.66554</ele>
        <time>2023-11-23T13:05:11.000Z</time>
      </trkpt>
      <trkpt lat="45.475645" lon="7.641729">
        <ele>2047.01428</ele>
        <time>2023-11-23T13:05:17.000Z</time>
      </trkpt>
      <trkpt lat="45.475667" lon="7.641696">
        <ele>2046.70516</ele>
        <time>2023-11-23T13:05:23.000Z</time>
      </trkpt>
      <trkpt lat="45.475684" lon="7.641655">
        <ele>2046.13849</ele>
        <time>2023-11-23T13:05:28.000Z</time>
      </trkpt>
      <trkpt lat="45.475717" lon="7.641618">
        <ele>2045.53249</ele>
        <time>2023-11-23T13:05:34.000Z</time>
      </trkpt>
      <trkpt lat="45.475742" lon="7.641588">
        <ele>2044.90584</ele>
        <time>2023-11-23T13:05:39.000Z</time>
      </trkpt>
      <trkpt lat="45.475768" lon="7.641541">
        <ele>2043.84255</ele>
        <time>2023-11-23T13:05:45.000Z</time>
      </trkpt>
      <trkpt lat="45.475785" lon="7.641491">
        <ele>2042.69818</ele>
        <time>2023-11-23T13:05:51.000Z</time>
      </trkpt>
      <trkpt lat="45.475798" lon="7.641463">
        <ele>2042.02956</ele>
        <time>2023-11-23T13:05:56.000Z</time>
      </trkpt>
      <trkpt lat="45.475825" lon="7.641446">
        <ele>2041.54536</ele>
        <time>2023-11-23T13:06:02.000Z</time>
      </trkpt>
      <trkpt lat="45.47584" lon="7.641396">
        <ele>2040.40714</ele>
        <time>2023-11-23T13:06:08.000Z</time>
      </trkpt>
      <trkpt lat="45.475846" lon="7.641315">
        <ele>2038.59299</ele>
        <time>2023-11-23T13:06:14.000Z</time>
      </trkpt>
      <trkpt lat="45.475885" lon="7.64125">
        <ele>2037.38577</ele>
        <time>2023-11-23T13:06:20.000Z</time>
      </trkpt>
      <trkpt lat="45.475912" lon="7.6412">
        <ele>2036.72367</ele>
        <time>2023-11-23T13:06:26.000Z</time>
      </trkpt>
      <trkpt lat="45.475935" lon="7.641143">
        <ele>2036.10358</ele>
        <time>2023-11-23T13:06:32.000Z</time>
      </trkpt>
      <trkpt lat="45.475953" lon="7.641093">
        <ele>2035.63818</ele>
        <time>2023-11-23T13:06:37.000Z</time>
      </trkpt>
      <trkpt lat="45.475981" lon="7.641024">
        <ele>2035.12244</ele>
        <time>2023-11-23T13:06:43.000Z</time>
      </trkpt>
      <trkpt lat="45.476015" lon="7.640976">
        <ele>2035.14614</ele>
        <time>2023-11-23T13:06:49.000Z</time>
      </trkpt>
      <trkpt lat="45.476062" lon="7.640954">
        <ele>2035.75939</ele>
        <time>2023-11-23T13:06:55.000Z</time>
      </trkpt>
      <trkpt lat="45.476078" lon="7.640943">
        <ele>2035.95078</ele>
        <time>2023-11-23T13:07:01.000Z</time>
      </trkpt>
      <trkpt lat="45.476098" lon="7.640907">
        <ele>2036.14833</ele>
        <time>2023-11-23T13:07:06.000Z</time>
      </trkpt>
      <trkpt lat="45.476132" lon="7.640846">
        <ele>2036.36039</ele>
        <time>2023-11-23T13:07:12.000Z</time>
      </trkpt>
      <trkpt lat="45.476145" lon="7.640762">
        <ele>2035.97831</ele>
        <time>2023-11-23T13:11:05.000Z</time>
      </trkpt>
      <trkpt lat="45.47614" lon="7.640743">
        <ele>2035.86636</ele>
        <time>2023-11-23T13:11:11.000Z</time>
      </trkpt>
      <trkpt lat="45.476136" lon="7.640703">
        <ele>2035.60103</ele>
        <time>2023-11-23T13:12:01.000Z</time>
      </trkpt>
      <trkpt lat="45.476128" lon="7.640684">
        <ele>2035.44513</ele>
        <time>2023-11-23T13:12:07.000Z</time>
      </trkpt>
      <trkpt lat="45.476123" lon="7.640664">
        <ele>2035.26271</ele>
        <time>2023-11-23T13:14:00.000Z</time>
      </trkpt>
    </trkseg>
  </trk>
</gpx>